sensor_id;sensor_type;location;lat;lon;timestamp;P1;durP1;ratioP1;P2;durP2;ratioP2
41653;SDS011;68687;52.030;7.110;2023-05-10T00:02:19;8.40;;;7.60;;
41653;SDS011;68687;52.030;7.110;2023-05-10T00:04:45;9.52;;;7.35;;
41653;SDS011;68687;52.030;7.110;2023-05-10T00:07:10;8.05;;;7.25;;
41653;SDS011;68687;52.030;7.110;2023-05-10T00:09:35;8.15;;;7.10;;
41653;SDS011;68687;52.030;7.110;2023-05-10T00:12:01;8.20;;;7.40;;
41653;SDS011;68687;52.030;7.110;2023-05-10T00:14:26;10.32;;;7.10;;
41653;SDS011;68687;52.030;7.110;2023-05-10T00:16:52;8.55;;;7.75;;
41653;SDS011;68687;52.030;7.110;2023-05-10T00:19:17;8.57;;;6.68;;
41653;SDS011;68687;52.030;7.110;2023-05-10T00:21:42;8.07;;;7.05;;
41653;SDS011;68687;52.030;7.110;2023-05-10T00:24:07;7.45;;;6.72;;
41653;SDS011;68687;52.030;7.110;2023-05-10T00:26:33;7.65;;;6.88;;
41653;SDS011;68687;52.030;7.110;2023-05-10T00:28:58;9.52;;;8.13;;
41653;SDS011;68687;52.030;7.110;2023-05-10T00:31:23;9.82;;;8.70;;
41653;SDS011;68687;52.030;7.110;2023-05-10T00:33:49;11.45;;;9.20;;
41653;SDS011;68687;52.030;7.110;2023-05-10T00:36:17;11.35;;;8.73;;
41653;SDS011;68687;52.030;7.110;2023-05-10T00:38:42;9.38;;;7.93;;
41653;SDS011;68687;52.030;7.110;2023-05-10T00:41:07;8.65;;;7.70;;
41653;SDS011;68687;52.030;7.110;2023-05-10T00:43:33;7.85;;;6.43;;
41653;SDS011;68687;52.030;7.110;2023-05-10T00:45:58;6.13;;;5.45;;
41653;SDS011;68687;52.030;7.110;2023-05-10T00:48:24;5.35;;;4.95;;
41653;SDS011;68687;52.030;7.110;2023-05-10T00:50:50;5.80;;;5.38;;
41653;SDS011;68687;52.030;7.110;2023-05-10T00:53:15;6.18;;;5.72;;
41653;SDS011;68687;52.030;7.110;2023-05-10T00:55:44;6.20;;;5.70;;
41653;SDS011;68687;52.030;7.110;2023-05-10T00:58:09;6.40;;;5.80;;
41653;SDS011;68687;52.030;7.110;2023-05-10T01:00:35;5.40;;;4.97;;
41653;SDS011;68687;52.030;7.110;2023-05-10T01:03:05;6.00;;;5.40;;
41653;SDS011;68687;52.030;7.110;2023-05-10T01:05:33;6.95;;;6.35;;
41653;SDS011;68687;52.030;7.110;2023-05-10T01:07:58;6.25;;;5.75;;
41653;SDS011;68687;52.030;7.110;2023-05-10T01:10:23;9.25;;;6.45;;
41653;SDS011;68687;52.030;7.110;2023-05-10T01:12:49;9.27;;;7.00;;
41653;SDS011;68687;52.030;7.110;2023-05-10T01:15:17;6.18;;;5.68;;
41653;SDS011;68687;52.030;7.110;2023-05-10T01:17:45;9.70;;;6.47;;
41653;SDS011;68687;52.030;7.110;2023-05-10T01:20:15;7.85;;;7.05;;
41653;SDS011;68687;52.030;7.110;2023-05-10T01:22:50;7.18;;;6.57;;
41653;SDS011;68687;52.030;7.110;2023-05-10T01:28:46;8.20;;;6.83;;
41653;SDS011;68687;52.030;7.110;2023-05-10T01:34:16;8.80;;;7.50;;
41653;SDS011;68687;52.030;7.110;2023-05-10T01:37:02;8.40;;;7.20;;
41653;SDS011;68687;52.030;7.110;2023-05-10T01:39:44;7.32;;;6.60;;
41653;SDS011;68687;52.030;7.110;2023-05-10T01:42:33;8.70;;;7.20;;
41653;SDS011;68687;52.030;7.110;2023-05-10T01:45:18;9.90;;;7.35;;
41653;SDS011;68687;52.030;7.110;2023-05-10T01:47:52;8.25;;;7.22;;
41653;SDS011;68687;52.030;7.110;2023-05-10T01:50:24;12.05;;;6.95;;
41653;SDS011;68687;52.030;7.110;2023-05-10T01:52:54;7.88;;;7.07;;
41653;SDS011;68687;52.030;7.110;2023-05-10T01:55:22;8.93;;;8.02;;
41653;SDS011;68687;52.030;7.110;2023-05-10T01:58:05;8.40;;;7.60;;
41653;SDS011;68687;52.030;7.110;2023-05-10T02:00:34;8.30;;;7.50;;
41653;SDS011;68687;52.030;7.110;2023-05-10T02:03:01;9.23;;;8.13;;
41653;SDS011;68687;52.030;7.110;2023-05-10T02:05:30;11.02;;;8.82;;
41653;SDS011;68687;52.030;7.110;2023-05-10T02:07:57;9.63;;;8.10;;
41653;SDS011;68687;52.030;7.110;2023-05-10T02:10:26;7.78;;;6.97;;
41653;SDS011;68687;52.030;7.110;2023-05-10T02:12:52;11.52;;;7.57;;
41653;SDS011;68687;52.030;7.110;2023-05-10T02:15:23;9.32;;;7.97;;
41653;SDS011;68687;52.030;7.110;2023-05-10T02:17:50;8.65;;;7.35;;
41653;SDS011;68687;52.030;7.110;2023-05-10T02:20:17;7.95;;;7.25;;
41653;SDS011;68687;52.030;7.110;2023-05-10T02:22:44;8.15;;;7.35;;
41653;SDS011;68687;52.030;7.110;2023-05-10T02:25:13;7.55;;;6.85;;
41653;SDS011;68687;52.030;7.110;2023-05-10T02:27:40;8.27;;;7.45;;
41653;SDS011;68687;52.030;7.110;2023-05-10T02:30:07;9.63;;;6.97;;
41653;SDS011;68687;52.030;7.110;2023-05-10T02:32:36;8.23;;;7.43;;
41653;SDS011;68687;52.030;7.110;2023-05-10T02:35:03;6.82;;;6.22;;
41653;SDS011;68687;52.030;7.110;2023-05-10T02:37:29;7.78;;;6.97;;
41653;SDS011;68687;52.030;7.110;2023-05-10T02:39:55;8.55;;;6.80;;
41653;SDS011;68687;52.030;7.110;2023-05-10T02:42:35;7.30;;;6.28;;
41653;SDS011;68687;52.030;7.110;2023-05-10T02:45:07;8.68;;;6.95;;
41653;SDS011;68687;52.030;7.110;2023-05-10T02:47:36;10.13;;;7.47;;
41653;SDS011;68687;52.030;7.110;2023-05-10T02:50:04;8.90;;;8.10;;
41653;SDS011;68687;52.030;7.110;2023-05-10T02:52:34;9.80;;;8.80;;
41653;SDS011;68687;52.030;7.110;2023-05-10T02:55:04;10.88;;;9.07;;
41653;SDS011;68687;52.030;7.110;2023-05-10T02:57:34;11.00;;;8.93;;
41653;SDS011;68687;52.030;7.110;2023-05-10T03:00:03;10.27;;;9.25;;
41653;SDS011;68687;52.030;7.110;2023-05-10T03:02:32;13.10;;;9.52;;
41653;SDS011;68687;52.030;7.110;2023-05-10T03:04:58;12.00;;;9.45;;
41653;SDS011;68687;52.030;7.110;2023-05-10T03:07:23;11.82;;;10.57;;
41653;SDS011;68687;52.030;7.110;2023-05-10T03:09:48;14.73;;;11.73;;
41653;SDS011;68687;52.030;7.110;2023-05-10T03:17:51;11.52;;;10.32;;
41653;SDS011;68687;52.030;7.110;2023-05-10T03:20:22;12.27;;;10.52;;
41653;SDS011;68687;52.030;7.110;2023-05-10T03:25:57;16.02;;;10.27;;
41653;SDS011;68687;52.030;7.110;2023-05-10T03:28:24;16.30;;;11.65;;
41653;SDS011;68687;52.030;7.110;2023-05-10T03:30:50;18.10;;;13.35;;
41653;SDS011;68687;52.030;7.110;2023-05-10T03:33:17;15.63;;;12.40;;
41653;SDS011;68687;52.030;7.110;2023-05-10T03:35:43;17.10;;;14.27;;
41653;SDS011;68687;52.030;7.110;2023-05-10T03:38:10;15.88;;;12.70;;
41653;SDS011;68687;52.030;7.110;2023-05-10T03:40:36;16.35;;;13.55;;
41653;SDS011;68687;52.030;7.110;2023-05-10T03:43:02;18.00;;;14.98;;
41653;SDS011;68687;52.030;7.110;2023-05-10T03:45:27;21.20;;;16.33;;
41653;SDS011;68687;52.030;7.110;2023-05-10T03:47:58;21.52;;;15.45;;
41653;SDS011;68687;52.030;7.110;2023-05-10T03:50:24;23.98;;;16.80;;
41653;SDS011;68687;52.030;7.110;2023-05-10T03:52:49;21.23;;;16.02;;
41653;SDS011;68687;52.030;7.110;2023-05-10T03:55:18;22.23;;;15.25;;
41653;SDS011;68687;52.030;7.110;2023-05-10T03:57:43;25.88;;;16.90;;
41653;SDS011;68687;52.030;7.110;2023-05-10T04:00:09;23.20;;;16.13;;
41653;SDS011;68687;52.030;7.110;2023-05-10T04:02:35;23.52;;;17.77;;
41653;SDS011;68687;52.030;7.110;2023-05-10T04:05:00;28.70;;;18.67;;
41653;SDS011;68687;52.030;7.110;2023-05-10T04:07:26;25.30;;;17.10;;
41653;SDS011;68687;52.030;7.110;2023-05-10T04:09:51;31.45;;;20.08;;
41653;SDS011;68687;52.030;7.110;2023-05-10T04:12:20;33.78;;;21.48;;
41653;SDS011;68687;52.030;7.110;2023-05-10T04:14:45;37.00;;;21.92;;
41653;SDS011;68687;52.030;7.110;2023-05-10T04:17:10;38.78;;;23.23;;
41653;SDS011;68687;52.030;7.110;2023-05-10T04:19:36;38.40;;;24.23;;
41653;SDS011;68687;52.030;7.110;2023-05-10T04:22:02;37.72;;;23.08;;
41653;SDS011;68687;52.030;7.110;2023-05-10T04:24:27;35.05;;;20.55;;
41653;SDS011;68687;52.030;7.110;2023-05-10T04:26:55;40.72;;;23.52;;
41653;SDS011;68687;52.030;7.110;2023-05-10T04:29:24;42.40;;;23.40;;
41653;SDS011;68687;52.030;7.110;2023-05-10T04:31:49;43.17;;;23.77;;
41653;SDS011;68687;52.030;7.110;2023-05-10T04:34:33;41.75;;;22.52;;
41653;SDS011;68687;52.030;7.110;2023-05-10T04:36:59;46.35;;;24.08;;
41653;SDS011;68687;52.030;7.110;2023-05-10T04:39:24;56.67;;;26.85;;
41653;SDS011;68687;52.030;7.110;2023-05-10T04:41:55;56.30;;;28.65;;
41653;SDS011;68687;52.030;7.110;2023-05-10T04:44:21;57.03;;;28.67;;
41653;SDS011;68687;52.030;7.110;2023-05-10T04:46:46;59.78;;;27.27;;
41653;SDS011;68687;52.030;7.110;2023-05-10T04:49:11;54.85;;;27.70;;
41653;SDS011;68687;52.030;7.110;2023-05-10T04:51:37;58.40;;;28.27;;
41653;SDS011;68687;52.030;7.110;2023-05-10T04:54:02;62.25;;;28.90;;
41653;SDS011;68687;52.030;7.110;2023-05-10T04:56:27;70.97;;;31.05;;
41653;SDS011;68687;52.030;7.110;2023-05-10T04:58:55;67.55;;;29.58;;
41653;SDS011;68687;52.030;7.110;2023-05-10T05:01:36;64.53;;;28.33;;
41653;SDS011;68687;52.030;7.110;2023-05-10T05:04:01;60.53;;;28.85;;
41653;SDS011;68687;52.030;7.110;2023-05-10T05:06:26;68.22;;;30.98;;
41653;SDS011;68687;52.030;7.110;2023-05-10T05:08:52;59.97;;;28.10;;
41653;SDS011;68687;52.030;7.110;2023-05-10T05:11:17;63.35;;;28.23;;
41653;SDS011;68687;52.030;7.110;2023-05-10T05:13:43;73.53;;;31.77;;
41653;SDS011;68687;52.030;7.110;2023-05-10T05:16:08;74.47;;;32.85;;
41653;SDS011;68687;52.030;7.110;2023-05-10T05:18:34;69.35;;;30.23;;
41653;SDS011;68687;52.030;7.110;2023-05-10T05:20:59;77.13;;;31.98;;
41653;SDS011;68687;52.030;7.110;2023-05-10T05:23:24;71.65;;;31.52;;
41653;SDS011;68687;52.030;7.110;2023-05-10T05:26:03;72.93;;;31.13;;
41653;SDS011;68687;52.030;7.110;2023-05-10T05:28:34;65.18;;;30.23;;
41653;SDS011;68687;52.030;7.110;2023-05-10T05:31:02;68.68;;;32.03;;
41653;SDS011;68687;52.030;7.110;2023-05-10T05:33:31;67.18;;;31.77;;
41653;SDS011;68687;52.030;7.110;2023-05-10T05:35:56;67.85;;;31.83;;
41653;SDS011;68687;52.030;7.110;2023-05-10T05:38:24;58.53;;;29.73;;
41653;SDS011;68687;52.030;7.110;2023-05-10T05:40:49;63.33;;;29.73;;
41653;SDS011;68687;52.030;7.110;2023-05-10T05:43:15;77.75;;;32.47;;
41653;SDS011;68687;52.030;7.110;2023-05-10T05:45:40;67.90;;;29.92;;
41653;SDS011;68687;52.030;7.110;2023-05-10T05:48:08;72.88;;;34.25;;
41653;SDS011;68687;52.030;7.110;2023-05-10T05:50:34;70.30;;;31.42;;
41653;SDS011;68687;52.030;7.110;2023-05-10T05:52:59;78.00;;;32.33;;
41653;SDS011;68687;52.030;7.110;2023-05-10T05:55:24;79.78;;;34.80;;
41653;SDS011;68687;52.030;7.110;2023-05-10T05:58:00;86.18;;;35.50;;
41653;SDS011;68687;52.030;7.110;2023-05-10T06:00:25;88.88;;;35.58;;
41653;SDS011;68687;52.030;7.110;2023-05-10T06:02:54;87.20;;;36.05;;
41653;SDS011;68687;52.030;7.110;2023-05-10T06:05:22;91.50;;;37.97;;
41653;SDS011;68687;52.030;7.110;2023-05-10T06:07:47;80.93;;;38.13;;
41653;SDS011;68687;52.030;7.110;2023-05-10T06:10:12;83.63;;;36.90;;
41653;SDS011;68687;52.030;7.110;2023-05-10T06:12:38;83.32;;;38.78;;
41653;SDS011;68687;52.030;7.110;2023-05-10T06:15:12;85.03;;;37.22;;
41653;SDS011;68687;52.030;7.110;2023-05-10T06:17:37;77.93;;;36.75;;
41653;SDS011;68687;52.030;7.110;2023-05-10T06:20:03;84.22;;;38.75;;
41653;SDS011;68687;52.030;7.110;2023-05-10T06:22:29;84.53;;;36.00;;
41653;SDS011;68687;52.030;7.110;2023-05-10T06:24:58;83.53;;;37.70;;
41653;SDS011;68687;52.030;7.110;2023-05-10T06:27:23;83.18;;;37.08;;
41653;SDS011;68687;52.030;7.110;2023-05-10T06:29:55;78.88;;;36.50;;
41653;SDS011;68687;52.030;7.110;2023-05-10T06:32:24;84.35;;;36.88;;
41653;SDS011;68687;52.030;7.110;2023-05-10T06:34:49;91.38;;;35.83;;
41653;SDS011;68687;52.030;7.110;2023-05-10T06:37:14;82.03;;;36.75;;
41653;SDS011;68687;52.030;7.110;2023-05-10T06:39:39;85.68;;;38.05;;
41653;SDS011;68687;52.030;7.110;2023-05-10T06:42:05;79.85;;;36.75;;
41653;SDS011;68687;52.030;7.110;2023-05-10T06:44:30;78.53;;;36.72;;
41653;SDS011;68687;52.030;7.110;2023-05-10T06:46:58;76.90;;;34.28;;
41653;SDS011;68687;52.030;7.110;2023-05-10T06:49:24;87.68;;;39.08;;
41653;SDS011;68687;52.030;7.110;2023-05-10T06:51:49;80.63;;;37.35;;
41653;SDS011;68687;52.030;7.110;2023-05-10T06:54:17;77.32;;;36.05;;
41653;SDS011;68687;52.030;7.110;2023-05-10T06:56:43;77.78;;;36.25;;
41653;SDS011;68687;52.030;7.110;2023-05-10T06:59:08;72.25;;;34.55;;
41653;SDS011;68687;52.030;7.110;2023-05-10T07:01:33;77.70;;;35.55;;
41653;SDS011;68687;52.030;7.110;2023-05-10T07:03:59;74.80;;;35.53;;
41653;SDS011;68687;52.030;7.110;2023-05-10T07:06:27;93.68;;;39.13;;
41653;SDS011;68687;52.030;7.110;2023-05-10T07:08:52;83.30;;;37.08;;
41653;SDS011;68687;52.030;7.110;2023-05-10T07:11:18;80.78;;;37.00;;
41653;SDS011;68687;52.030;7.110;2023-05-10T07:13:43;88.18;;;37.42;;
41653;SDS011;68687;52.030;7.110;2023-05-10T07:16:11;76.38;;;35.25;;
41653;SDS011;68687;52.030;7.110;2023-05-10T07:18:36;82.90;;;36.30;;
41653;SDS011;68687;52.030;7.110;2023-05-10T07:21:01;82.00;;;37.10;;
41653;SDS011;68687;52.030;7.110;2023-05-10T07:23:30;83.00;;;35.40;;
41653;SDS011;68687;52.030;7.110;2023-05-10T07:26:05;85.10;;;36.88;;
41653;SDS011;68687;52.030;7.110;2023-05-10T07:28:30;78.27;;;35.57;;
41653;SDS011;68687;52.030;7.110;2023-05-10T07:30:56;80.57;;;36.83;;
41653;SDS011;68687;52.030;7.110;2023-05-10T07:33:21;81.13;;;36.40;;
41653;SDS011;68687;52.030;7.110;2023-05-10T07:35:47;77.88;;;35.25;;
41653;SDS011;68687;52.030;7.110;2023-05-10T07:38:12;73.22;;;33.15;;
41653;SDS011;68687;52.030;7.110;2023-05-10T07:40:38;73.47;;;33.88;;
41653;SDS011;68687;52.030;7.110;2023-05-10T07:43:04;69.28;;;31.52;;
41653;SDS011;68687;52.030;7.110;2023-05-10T07:45:33;62.70;;;31.42;;
41653;SDS011;68687;52.030;7.110;2023-05-10T07:47:58;68.57;;;32.03;;
41653;SDS011;68687;52.030;7.110;2023-05-10T07:50:23;62.08;;;28.98;;
41653;SDS011;68687;52.030;7.110;2023-05-10T07:52:49;65.57;;;29.30;;
41653;SDS011;68687;52.030;7.110;2023-05-10T07:55:14;67.35;;;30.45;;
41653;SDS011;68687;52.030;7.110;2023-05-10T07:57:39;73.65;;;30.38;;
41653;SDS011;68687;52.030;7.110;2023-05-10T08:00:05;64.47;;;29.80;;
41653;SDS011;68687;52.030;7.110;2023-05-10T08:02:32;62.30;;;30.15;;
41653;SDS011;68687;52.030;7.110;2023-05-10T08:04:57;62.63;;;30.20;;
41653;SDS011;68687;52.030;7.110;2023-05-10T08:07:24;55.85;;;29.42;;
41653;SDS011;68687;52.030;7.110;2023-05-10T08:09:52;70.03;;;33.75;;
41653;SDS011;68687;52.030;7.110;2023-05-10T08:12:20;63.63;;;30.65;;
41653;SDS011;68687;52.030;7.110;2023-05-10T08:14:45;70.50;;;31.02;;
41653;SDS011;68687;52.030;7.110;2023-05-10T08:17:11;62.15;;;27.55;;
41653;SDS011;68687;52.030;7.110;2023-05-10T08:19:36;64.22;;;28.77;;
41653;SDS011;68687;52.030;7.110;2023-05-10T08:22:01;61.72;;;28.30;;
41653;SDS011;68687;52.030;7.110;2023-05-10T08:24:27;59.47;;;29.33;;
41653;SDS011;68687;52.030;7.110;2023-05-10T08:26:52;63.22;;;27.92;;
41653;SDS011;68687;52.030;7.110;2023-05-10T08:29:17;61.25;;;29.98;;
41653;SDS011;68687;52.030;7.110;2023-05-10T08:31:42;69.60;;;31.65;;
41653;SDS011;68687;52.030;7.110;2023-05-10T08:34:08;64.55;;;29.38;;
41653;SDS011;68687;52.030;7.110;2023-05-10T08:36:33;61.92;;;31.38;;
41653;SDS011;68687;52.030;7.110;2023-05-10T08:39:04;63.95;;;31.63;;
41653;SDS011;68687;52.030;7.110;2023-05-10T08:41:33;64.53;;;29.25;;
41653;SDS011;68687;52.030;7.110;2023-05-10T08:43:58;62.35;;;28.60;;
41653;SDS011;68687;52.030;7.110;2023-05-10T08:46:34;60.47;;;29.90;;
41653;SDS011;68687;52.030;7.110;2023-05-10T08:49:04;63.95;;;30.65;;
41653;SDS011;68687;52.030;7.110;2023-05-10T08:51:36;61.95;;;30.38;;
41653;SDS011;68687;52.030;7.110;2023-05-10T08:54:04;59.50;;;29.67;;
41653;SDS011;68687;52.030;7.110;2023-05-10T08:56:33;53.60;;;27.17;;
41653;SDS011;68687;52.030;7.110;2023-05-10T08:58:58;53.20;;;28.38;;
41653;SDS011;68687;52.030;7.110;2023-05-10T09:01:24;63.13;;;27.80;;
41653;SDS011;68687;52.030;7.110;2023-05-10T09:03:54;58.90;;;28.92;;
41653;SDS011;68687;52.030;7.110;2023-05-10T09:06:20;55.63;;;28.02;;
41653;SDS011;68687;52.030;7.110;2023-05-10T09:08:48;59.30;;;28.40;;
41653;SDS011;68687;52.030;7.110;2023-05-10T09:11:14;58.10;;;29.73;;
41653;SDS011;68687;52.030;7.110;2023-05-10T09:13:40;63.50;;;29.40;;
41653;SDS011;68687;52.030;7.110;2023-05-10T09:16:07;60.95;;;29.45;;
41653;SDS011;68687;52.030;7.110;2023-05-10T09:18:32;55.35;;;28.88;;
41653;SDS011;68687;52.030;7.110;2023-05-10T09:21:00;54.97;;;29.02;;
41653;SDS011;68687;52.030;7.110;2023-05-10T09:23:26;60.47;;;29.55;;
41653;SDS011;68687;52.030;7.110;2023-05-10T09:26:06;63.40;;;30.67;;
41653;SDS011;68687;52.030;7.110;2023-05-10T09:28:32;66.55;;;30.75;;
41653;SDS011;68687;52.030;7.110;2023-05-10T09:30:59;57.55;;;29.33;;
41653;SDS011;68687;52.030;7.110;2023-05-10T09:33:24;55.45;;;28.48;;
41653;SDS011;68687;52.030;7.110;2023-05-10T09:35:50;60.03;;;28.80;;
41653;SDS011;68687;52.030;7.110;2023-05-10T09:38:26;52.60;;;29.15;;
41653;SDS011;68687;52.030;7.110;2023-05-10T09:40:52;54.50;;;28.50;;
41653;SDS011;68687;52.030;7.110;2023-05-10T09:43:29;53.75;;;27.75;;
41653;SDS011;68687;52.030;7.110;2023-05-10T09:46:08;54.78;;;28.40;;
41653;SDS011;68687;52.030;7.110;2023-05-10T09:48:34;62.45;;;29.23;;
41653;SDS011;68687;52.030;7.110;2023-05-10T09:51:09;55.22;;;28.17;;
41653;SDS011;68687;52.030;7.110;2023-05-10T09:53:35;51.50;;;28.02;;
41653;SDS011;68687;52.030;7.110;2023-05-10T09:56:00;54.35;;;27.55;;
41653;SDS011;68687;52.030;7.110;2023-05-10T09:58:36;52.42;;;28.67;;
41653;SDS011;68687;52.030;7.110;2023-05-10T10:01:03;57.75;;;28.55;;
41653;SDS011;68687;52.030;7.110;2023-05-10T10:03:28;54.15;;;27.92;;
41653;SDS011;68687;52.030;7.110;2023-05-10T10:05:55;47.38;;;26.60;;
41653;SDS011;68687;52.030;7.110;2023-05-10T10:08:20;54.00;;;26.52;;
41653;SDS011;68687;52.030;7.110;2023-05-10T10:10:46;46.92;;;25.38;;
41653;SDS011;68687;52.030;7.110;2023-05-10T10:13:11;48.35;;;26.42;;
41653;SDS011;68687;52.030;7.110;2023-05-10T10:15:38;49.63;;;25.33;;
41653;SDS011;68687;52.030;7.110;2023-05-10T10:18:04;41.85;;;25.05;;
41653;SDS011;68687;52.030;7.110;2023-05-10T10:20:30;50.08;;;27.15;;
41653;SDS011;68687;52.030;7.110;2023-05-10T10:22:56;41.42;;;24.55;;
41653;SDS011;68687;52.030;7.110;2023-05-10T10:25:21;46.03;;;24.92;;
41653;SDS011;68687;52.030;7.110;2023-05-10T10:27:59;39.75;;;23.65;;
41653;SDS011;68687;52.030;7.110;2023-05-10T10:30:47;41.15;;;22.92;;
41653;SDS011;68687;52.030;7.110;2023-05-10T10:35:57;39.63;;;22.85;;
41653;SDS011;68687;52.030;7.110;2023-05-10T10:38:25;40.72;;;24.40;;
41653;SDS011;68687;52.030;7.110;2023-05-10T10:41:02;43.60;;;24.02;;
41653;SDS011;68687;52.030;7.110;2023-05-10T10:43:34;41.25;;;23.58;;
41653;SDS011;68687;52.030;7.110;2023-05-10T10:46:18;43.25;;;23.88;;
41653;SDS011;68687;52.030;7.110;2023-05-10T10:51:38;33.47;;;21.45;;
41653;SDS011;68687;52.030;7.110;2023-05-10T10:54:10;35.85;;;21.25;;
41653;SDS011;68687;52.030;7.110;2023-05-10T10:56:36;30.63;;;18.98;;
41653;SDS011;68687;52.030;7.110;2023-05-10T10:59:04;34.53;;;18.60;;
41653;SDS011;68687;52.030;7.110;2023-05-10T11:01:35;35.63;;;18.80;;
41653;SDS011;68687;52.030;7.110;2023-05-10T11:06:29;29.13;;;18.52;;
41653;SDS011;68687;52.030;7.110;2023-05-10T11:09:05;33.58;;;18.90;;
41653;SDS011;68687;52.030;7.110;2023-05-10T11:11:32;24.80;;;15.90;;
41653;SDS011;68687;52.030;7.110;2023-05-10T11:14:06;27.92;;;15.98;;
41653;SDS011;68687;52.030;7.110;2023-05-10T11:19:29;23.77;;;13.90;;
41653;SDS011;68687;52.030;7.110;2023-05-10T11:24:29;27.67;;;15.80;;
41653;SDS011;68687;52.030;7.110;2023-05-10T11:26:57;28.20;;;16.70;;
41653;SDS011;68687;52.030;7.110;2023-05-10T11:29:26;28.55;;;16.75;;
41653;SDS011;68687;52.030;7.110;2023-05-10T11:31:56;31.13;;;18.88;;
41653;SDS011;68687;52.030;7.110;2023-05-10T11:34:26;21.65;;;15.18;;
41653;SDS011;68687;52.030;7.110;2023-05-10T11:36:55;29.20;;;16.92;;
41653;SDS011;68687;52.030;7.110;2023-05-10T11:39:21;32.33;;;19.20;;
41653;SDS011;68687;52.030;7.110;2023-05-10T11:41:57;28.35;;;17.48;;
41653;SDS011;68687;52.030;7.110;2023-05-10T11:44:35;30.63;;;19.15;;
41653;SDS011;68687;52.030;7.110;2023-05-10T11:47:04;30.20;;;18.08;;
41653;SDS011;68687;52.030;7.110;2023-05-10T11:49:30;30.98;;;20.05;;
41653;SDS011;68687;52.030;7.110;2023-05-10T11:52:08;28.73;;;18.38;;
41653;SDS011;68687;52.030;7.110;2023-05-10T11:54:33;25.65;;;17.42;;
41653;SDS011;68687;52.030;7.110;2023-05-10T11:57:00;26.73;;;16.88;;
41653;SDS011;68687;52.030;7.110;2023-05-10T11:59:28;24.85;;;15.75;;
41653;SDS011;68687;52.030;7.110;2023-05-10T12:01:53;25.67;;;14.65;;
41653;SDS011;68687;52.030;7.110;2023-05-10T12:04:28;22.02;;;14.07;;
41653;SDS011;68687;52.030;7.110;2023-05-10T12:09:19;27.88;;;16.83;;
41653;SDS011;68687;52.030;7.110;2023-05-10T12:11:45;31.20;;;18.38;;
41653;SDS011;68687;52.030;7.110;2023-05-10T12:14:10;31.70;;;18.83;;
41653;SDS011;68687;52.030;7.110;2023-05-10T12:16:36;28.70;;;17.92;;
41653;SDS011;68687;52.030;7.110;2023-05-10T12:19:01;35.35;;;17.88;;
41653;SDS011;68687;52.030;7.110;2023-05-10T12:21:28;38.95;;;20.00;;
41653;SDS011;68687;52.030;7.110;2023-05-10T12:23:56;30.17;;;17.70;;
41653;SDS011;68687;52.030;7.110;2023-05-10T12:26:25;33.80;;;18.38;;
41653;SDS011;68687;52.030;7.110;2023-05-10T12:28:54;36.35;;;18.77;;
41653;SDS011;68687;52.030;7.110;2023-05-10T12:31:48;35.88;;;19.25;;
41653;SDS011;68687;52.030;7.110;2023-05-10T12:34:30;31.05;;;16.63;;
41653;SDS011;68687;52.030;7.110;2023-05-10T12:36:57;30.95;;;16.98;;
41653;SDS011;68687;52.030;7.110;2023-05-10T12:39:23;27.88;;;15.98;;
41653;SDS011;68687;52.030;7.110;2023-05-10T12:41:49;29.05;;;15.63;;
41653;SDS011;68687;52.030;7.110;2023-05-10T12:44:23;29.67;;;15.85;;
41653;SDS011;68687;52.030;7.110;2023-05-10T12:46:49;26.47;;;15.47;;
41653;SDS011;68687;52.030;7.110;2023-05-10T12:49:14;26.65;;;15.95;;
41653;SDS011;68687;52.030;7.110;2023-05-10T12:51:39;32.78;;;18.80;;
41653;SDS011;68687;52.030;7.110;2023-05-10T12:54:05;31.25;;;17.08;;
41653;SDS011;68687;52.030;7.110;2023-05-10T12:56:30;29.67;;;17.88;;
41653;SDS011;68687;52.030;7.110;2023-05-10T12:58:55;31.60;;;17.20;;
41653;SDS011;68687;52.030;7.110;2023-05-10T13:01:21;33.85;;;17.85;;
41653;SDS011;68687;52.030;7.110;2023-05-10T13:03:49;31.20;;;17.40;;
41653;SDS011;68687;52.030;7.110;2023-05-10T13:06:18;26.00;;;17.33;;
41653;SDS011;68687;52.030;7.110;2023-05-10T13:08:43;27.90;;;18.40;;
41653;SDS011;68687;52.030;7.110;2023-05-10T13:11:11;34.35;;;19.85;;
41653;SDS011;68687;52.030;7.110;2023-05-10T13:13:41;32.92;;;19.77;;
41653;SDS011;68687;52.030;7.110;2023-05-10T13:16:06;34.17;;;19.95;;
41653;SDS011;68687;52.030;7.110;2023-05-10T13:18:31;40.60;;;20.27;;
41653;SDS011;68687;52.030;7.110;2023-05-10T13:20:57;34.08;;;19.40;;
41653;SDS011;68687;52.030;7.110;2023-05-10T13:23:22;36.00;;;20.83;;
41653;SDS011;68687;52.030;7.110;2023-05-10T13:25:47;35.35;;;20.38;;
41653;SDS011;68687;52.030;7.110;2023-05-10T13:28:13;37.72;;;19.95;;
41653;SDS011;68687;52.030;7.110;2023-05-10T13:30:38;37.60;;;20.90;;
41653;SDS011;68687;52.030;7.110;2023-05-10T13:33:03;33.13;;;19.30;;
41653;SDS011;68687;52.030;7.110;2023-05-10T13:35:28;27.83;;;18.13;;
41653;SDS011;68687;52.030;7.110;2023-05-10T13:37:54;33.72;;;17.25;;
41653;SDS011;68687;52.030;7.110;2023-05-10T13:40:22;30.33;;;17.33;;
41653;SDS011;68687;52.030;7.110;2023-05-10T13:42:47;27.60;;;17.17;;
41653;SDS011;68687;52.030;7.110;2023-05-10T13:45:13;24.30;;;15.98;;
41653;SDS011;68687;52.030;7.110;2023-05-10T13:47:38;25.23;;;15.20;;
41653;SDS011;68687;52.030;7.110;2023-05-10T13:50:03;19.95;;;12.90;;
41653;SDS011;68687;52.030;7.110;2023-05-10T13:52:32;22.90;;;13.90;;
41653;SDS011;68687;52.030;7.110;2023-05-10T13:54:57;21.83;;;12.77;;
41653;SDS011;68687;52.030;7.110;2023-05-10T13:57:23;21.92;;;13.80;;
41653;SDS011;68687;52.030;7.110;2023-05-10T13:59:49;22.33;;;14.10;;
41653;SDS011;68687;52.030;7.110;2023-05-10T14:02:14;23.30;;;13.88;;
41653;SDS011;68687;52.030;7.110;2023-05-10T14:04:39;25.00;;;15.88;;
41653;SDS011;68687;52.030;7.110;2023-05-10T14:07:05;24.65;;;14.35;;
41653;SDS011;68687;52.030;7.110;2023-05-10T14:09:33;27.02;;;14.30;;
41653;SDS011;68687;52.030;7.110;2023-05-10T14:11:58;24.27;;;14.38;;
41653;SDS011;68687;52.030;7.110;2023-05-10T14:14:36;27.90;;;14.75;;
41653;SDS011;68687;52.030;7.110;2023-05-10T14:17:01;23.67;;;15.07;;
41653;SDS011;68687;52.030;7.110;2023-05-10T14:19:27;25.38;;;14.55;;
41653;SDS011;68687;52.030;7.110;2023-05-10T14:21:52;27.77;;;14.98;;
41653;SDS011;68687;52.030;7.110;2023-05-10T14:24:23;25.50;;;13.60;;
41653;SDS011;68687;52.030;7.110;2023-05-10T14:26:49;25.23;;;13.40;;
41653;SDS011;68687;52.030;7.110;2023-05-10T14:29:14;27.08;;;13.82;;
41653;SDS011;68687;52.030;7.110;2023-05-10T14:31:40;21.70;;;12.73;;
41653;SDS011;68687;52.030;7.110;2023-05-10T14:34:08;21.55;;;13.95;;
41653;SDS011;68687;52.030;7.110;2023-05-10T14:36:33;29.08;;;15.15;;
41653;SDS011;68687;52.030;7.110;2023-05-10T14:38:59;21.27;;;14.00;;
41653;SDS011;68687;52.030;7.110;2023-05-10T14:41:24;22.45;;;14.27;;
41653;SDS011;68687;52.030;7.110;2023-05-10T14:43:49;21.83;;;13.13;;
41653;SDS011;68687;52.030;7.110;2023-05-10T14:46:14;25.00;;;14.07;;
41653;SDS011;68687;52.030;7.110;2023-05-10T14:48:40;19.13;;;12.73;;
41653;SDS011;68687;52.030;7.110;2023-05-10T14:51:06;22.85;;;12.93;;
41653;SDS011;68687;52.030;7.110;2023-05-10T14:53:31;26.15;;;14.25;;
41653;SDS011;68687;52.030;7.110;2023-05-10T14:55:57;20.35;;;12.77;;
41653;SDS011;68687;52.030;7.110;2023-05-10T14:58:23;21.58;;;13.18;;
41653;SDS011;68687;52.030;7.110;2023-05-10T15:00:48;21.20;;;12.45;;